Terminal Aerodrome Forecast
Issued by NWS

Home | Current Version | Previous Version | Text Only | Print | Product List | Glossary On
Versions: 1 2 3 4 5 6 7 8 9 10 11 12 13 14 15 16 17 18 19 20 21
000
FTUS45 KBOU 262335
TAFBJC
TAF
KBJC 262335Z 2700/2724 23008KT P6SM BKN100
     FM270200 30007KT P6SM SCT080 BKN150
     FM270500 29010KT P6SM FEW150
     FM271400 VRB05KT P6SM SCT100 SCT220
     FM271800 09008KT P6SM SCT100 BKN180=

USA.gov is the U.S. government's official web portal to all federal, state and local government web resources and services.